Time,TemperatureF,DewpointF,PressureIn,WindDirection,WindDirectionDegrees,WindSpeedMPH,WindSpeedGustMPH,Humidity,HourlyPrecipIn,Conditions,Clouds,dailyrainin,SoftwareType,DateUTC
2013-07-02 00:04:00,61.0,58.0,30.14,NE,47,0.0,0.0,90,0.00,,,0.00,Wunderground v.1.15,2013-07-02 05:04:00,
2013-07-02 00:10:00,60.8,57.8,30.14,NE,47,0.0,0.0,90,0.00,,,0.00,Wunderground v.1.15,2013-07-02 05:10:00,
2013-07-02 00:15:00,60.7,57.7,30.14,NE,47,0.0,0.0,90,0.00,,,0.00,Wunderground v.1.15,2013-07-02 05:15:00,
2013-07-02 00:20:00,60.5,57.6,30.14,NE,47,0.0,0.0,90,0.00,,,0.00,Wunderground v.1.15,2013-07-02 05:20:00,
2013-07-02 00:26:00,60.3,57.4,30.14,NE,47,0.0,0.0,90,0.00,,,0.00,Wunderground v.1.15,2013-07-02 05:26:00,
2013-07-02 00:32:00,60.1,57.2,30.14,NE,47,0.0,0.0,90,0.00,,,0.00,Wunderground v.1.15,2013-07-02 05:32:00,
2013-07-02 00:38:00,59.9,57.3,30.14,NE,47,0.0,0.0,91,0.00,,,0.00,Wunderground v.1.15,2013-07-02 05:38:00,
2013-07-02 00:44:00,59.8,57.2,30.14,NE,47,0.0,0.0,91,0.00,,,0.00,Wunderground v.1.15,2013-07-02 05:44:00,
2013-07-02 00:49:00,59.6,57.0,30.14,NE,47,0.0,0.0,91,0.00,,,0.00,Wunderground v.1.15,2013-07-02 05:49:00,
2013-07-02 00:55:00,59.4,57.1,30.14,NE,47,0.0,0.0,92,0.00,,,0.00,Wunderground v.1.15,2013-07-02 05:55:00,
2013-07-02 01:00:00,59.2,56.9,30.14,NE,47,0.0,0.0,92,0.00,,,0.00,Wunderground v.1.15,2013-07-02 06:00:00,
2013-07-02 01:05:00,59.1,56.8,30.14,NE,47,0.0,0.0,92,0.00,,,0.00,Wunderground v.1.15,2013-07-02 06:05:00,
2013-07-02 01:10:00,58.9,56.6,30.14,NE,47,0.0,0.0,92,0.00,,,0.00,Wunderground v.1.15,2013-07-02 06:10:00,
2013-07-02 01:15:00,58.8,56.5,30.14,NE,47,0.0,0.0,92,0.00,,,0.00,Wunderground v.1.15,2013-07-02 06:15:00,
2013-07-02 01:21:00,58.7,56.7,30.14,NE,47,0.0,0.0,93,0.00,,,0.00,Wunderground v.1.15,2013-07-02 06:21:00,
2013-07-02 01:26:00,58.6,56.6,30.14,NE,47,0.0,0.0,93,0.00,,,0.00,Wunderground v.1.15,2013-07-02 06:26:00,
2013-07-02 01:32:00,58.4,56.4,30.14,NE,47,0.0,0.0,93,0.00,,,0.00,Wunderground v.1.15,2013-07-02 06:32:00,
2013-07-02 01:37:00,58.3,56.3,30.14,NE,47,0.0,0.0,93,0.00,,,0.00,Wunderground v.1.15,2013-07-02 06:37:00,
2013-07-02 01:42:00,58.2,56.5,30.14,NE,47,0.0,0.0,94,0.00,,,0.00,Wunderground v.1.15,2013-07-02 06:42:00,
2013-07-02 01:48:00,58.2,56.5,30.14,NE,47,0.0,0.0,94,0.00,,,0.00,Wunderground v.1.15,2013-07-02 06:48:00,
2013-07-02 01:54:00,58.1,56.4,30.14,NE,47,0.0,0.0,94,0.00,,,0.00,Wunderground v.1.15,2013-07-02 06:54:00,
2013-07-02 01:59:00,58.0,56.3,30.14,NE,47,0.0,0.0,94,0.00,,,0.00,Wunderground v.1.15,2013-07-02 06:59:00,
2013-07-02 02:04:00,57.9,56.2,30.14,NE,47,0.0,0.0,94,0.00,,,0.00,Wunderground v.1.15,2013-07-02 07:04:00,
2013-07-02 02:09:00,57.8,56.1,30.14,NE,47,0.0,0.0,94,0.00,,,0.00,Wunderground v.1.15,2013-07-02 07:09:00,
2013-07-02 02:14:00,57.6,55.9,30.14,NE,47,0.0,0.0,94,0.00,,,0.00,Wunderground v.1.15,2013-07-02 07:14:00,
2013-07-02 02:19:00,57.6,56.2,30.14,NE,47,0.0,0.0,95,0.00,,,0.00,Wunderground v.1.15,2013-07-02 07:19:00,
2013-07-02 02:24:00,57.5,56.1,30.14,NE,47,0.0,0.0,95,0.00,,,0.00,Wunderground v.1.15,2013-07-02 07:24:00,
2013-07-02 02:29:00,57.5,56.1,30.14,NE,47,0.0,0.0,95,0.00,,,0.00,Wunderground v.1.15,2013-07-02 07:29:00,
2013-07-02 02:34:00,57.4,56.0,30.14,NE,47,0.0,0.0,95,0.00,,,0.00,Wunderground v.1.15,2013-07-02 07:34:00,
2013-07-02 02:40:00,57.3,55.9,30.14,NE,47,0.0,0.0,95,0.00,,,0.00,Wunderground v.1.15,2013-07-02 07:40:00,
2013-07-02 02:45:00,57.3,55.9,30.14,NE,47,0.0,0.0,95,0.00,,,0.00,Wunderground v.1.15,2013-07-02 07:45:00,
2013-07-02 02:50:00,57.2,55.8,30.14,NE,47,0.0,0.0,95,0.00,,,0.00,Wunderground v.1.15,2013-07-02 07:50:00,
2013-07-02 02:55:00,57.1,55.7,30.14,NE,47,0.0,0.0,95,0.00,,,0.00,Wunderground v.1.15,2013-07-02 07:55:00,
2013-07-02 03:00:00,57.1,55.7,30.14,NE,47,0.0,0.0,95,0.00,,,0.00,Wunderground v.1.15,2013-07-02 08:00:00,
2013-07-02 03:05:00,56.9,55.5,30.14,NE,47,0.0,0.0,95,0.00,,,0.00,Wunderground v.1.15,2013-07-02 08:05:00,
2013-07-02 03:10:00,56.9,55.5,30.14,NE,47,0.0,0.0,95,0.00,,,0.00,Wunderground v.1.15,2013-07-02 08:10:00,
2013-07-02 03:15:00,56.8,55.4,30.14,NE,47,0.0,0.0,95,0.00,,,0.00,Wunderground v.1.15,2013-07-02 08:15:00,
2013-07-02 03:21:00,56.8,55.4,30.14,NE,47,0.0,0.0,95,0.00,,,0.00,Wunderground v.1.15,2013-07-02 08:21:00,
2013-07-02 03:26:00,56.9,55.8,30.14,NE,47,0.0,0.0,96,0.00,,,0.00,Wunderground v.1.15,2013-07-02 08:26:00,
2013-07-02 03:31:00,56.9,55.8,30.14,NE,47,0.0,0.0,96,0.00,,,0.00,Wunderground v.1.15,2013-07-02 08:31:00,
2013-07-02 03:36:00,56.9,55.8,30.14,NE,47,0.0,0.0,96,0.00,,,0.00,Wunderground v.1.15,2013-07-02 08:36:00,
2013-07-02 03:41:00,56.8,55.7,30.14,NE,47,0.0,0.0,96,0.00,,,0.00,Wunderground v.1.15,2013-07-02 08:41:00,
2013-07-02 03:46:00,56.7,55.3,30.14,NE,47,0.0,0.0,95,0.00,,,0.00,Wunderground v.1.15,2013-07-02 08:46:00,
2013-07-02 03:51:00,56.5,55.1,30.14,NE,47,0.0,0.0,95,0.00,,,0.00,Wunderground v.1.15,2013-07-02 08:51:00,
2013-07-02 03:56:00,56.3,54.9,30.14,NE,47,0.0,0.0,95,0.00,,,0.00,Wunderground v.1.15,2013-07-02 08:56:00,
2013-07-02 04:01:00,56.1,54.7,30.14,NE,47,0.0,0.0,95,0.00,,,0.00,Wunderground v.1.15,2013-07-02 09:01:00,
2013-07-02 04:06:00,56.0,54.6,30.14,NE,47,0.0,0.0,95,0.00,,,0.00,Wunderground v.1.15,2013-07-02 09:06:00,
2013-07-02 04:11:00,55.9,54.5,30.14,NE,47,0.0,0.0,95,0.00,,,0.00,Wunderground v.1.15,2013-07-02 09:11:00,
2013-07-02 04:17:00,55.7,54.3,30.14,NE,47,0.0,0.0,95,0.00,,,0.00,Wunderground v.1.15,2013-07-02 09:17:00,
2013-07-02 04:19:00,55.7,54.3,30.14,NE,47,0.0,0.0,95,0.00,,,0.00,Wunderground v.1.15,2013-07-02 09:19:00,
2013-07-02 04:24:00,55.7,54.6,30.14,NE,47,0.0,0.0,96,0.00,,,0.00,Wunderground v.1.15,2013-07-02 09:24:00,
2013-07-02 04:29:00,55.7,54.6,30.14,NE,47,0.0,0.0,96,0.00,,,0.00,Wunderground v.1.15,2013-07-02 09:29:00,
2013-07-02 04:34:00,55.6,54.5,30.14,NE,47,0.0,0.0,96,0.00,,,0.00,Wunderground v.1.15,2013-07-02 09:34:00,
2013-07-02 04:39:00,55.5,54.4,30.15,NE,47,0.0,0.0,96,0.00,,,0.00,Wunderground v.1.15,2013-07-02 09:39:00,
2013-07-02 04:44:00,55.4,54.3,30.14,NE,47,0.0,0.0,96,0.00,,,0.00,Wunderground v.1.15,2013-07-02 09:44:00,
2013-07-02 04:50:00,55.3,54.2,30.14,NE,47,0.0,0.0,96,0.00,,,0.00,Wunderground v.1.15,2013-07-02 09:50:00,
2013-07-02 04:55:00,55.2,54.1,30.14,NE,47,0.0,0.0,96,0.00,,,0.00,Wunderground v.1.15,2013-07-02 09:55:00,
2013-07-02 05:00:00,55.1,54.0,30.14,NE,47,0.0,0.0,96,0.00,,,0.00,Wunderground v.1.15,2013-07-02 10:00:00,
2013-07-02 05:05:00,54.9,53.8,30.14,NE,47,0.0,0.0,96,0.00,,,0.00,Wunderground v.1.15,2013-07-02 10:05:00,
2013-07-02 05:10:00,54.8,53.7,30.14,NE,47,0.0,0.0,96,0.00,,,0.00,Wunderground v.1.15,2013-07-02 10:10:00,
2013-07-02 05:15:00,54.7,53.6,30.14,NE,47,0.0,0.0,96,0.00,,,0.00,Wunderground v.1.15,2013-07-02 10:15:00,
2013-07-02 05:20:00,54.6,53.5,30.14,NE,47,0.0,0.0,96,0.00,,,0.00,Wunderground v.1.15,2013-07-02 10:20:00,
2013-07-02 05:25:00,54.6,53.5,30.14,NE,47,0.0,0.0,96,0.00,,,0.00,Wunderground v.1.15,2013-07-02 10:25:00,
2013-07-02 05:30:00,54.6,53.8,30.14,NE,47,0.0,0.0,97,0.00,,,0.00,Wunderground v.1.15,2013-07-02 10:30:00,
2013-07-02 05:36:00,54.5,53.7,30.14,NE,47,0.0,0.0,97,0.00,,,0.00,Wunderground v.1.15,2013-07-02 10:36:00,
2013-07-02 05:41:00,54.6,53.8,30.14,NE,47,0.0,0.0,97,0.00,,,0.00,Wunderground v.1.15,2013-07-02 10:41:00,
2013-07-02 05:46:00,54.6,53.8,30.15,NE,47,0.0,0.0,97,0.00,,,0.00,Wunderground v.1.15,2013-07-02 10:46:00,
2013-07-02 05:51:00,54.6,53.8,30.14,NE,47,0.0,0.0,97,0.00,,,0.00,Wunderground v.1.15,2013-07-02 10:51:00,
2013-07-02 05:57:00,54.6,53.8,30.14,NE,47,0.0,0.0,97,0.00,,,0.00,Wunderground v.1.15,2013-07-02 10:57:00,
2013-07-02 06:02:00,54.6,53.8,30.14,NE,47,0.0,0.0,97,0.00,,,0.00,Wunderground v.1.15,2013-07-02 11:02:00,
2013-07-02 06:07:00,54.7,54.1,30.14,NE,47,0.0,0.0,98,0.00,,,0.00,Wunderground v.1.15,2013-07-02 11:07:00,
2013-07-02 06:12:00,54.8,54.2,30.14,NE,47,0.0,0.0,98,0.00,,,0.00,Wunderground v.1.15,2013-07-02 11:12:00,
2013-07-02 06:17:00,54.9,54.3,30.15,NE,47,0.0,0.0,98,0.00,,,0.00,Wunderground v.1.15,2013-07-02 11:17:00,
2013-07-02 06:22:00,55.0,54.4,30.14,NE,47,0.0,0.0,98,0.00,,,0.00,Wunderground v.1.15,2013-07-02 11:22:00,
2013-07-02 06:28:00,55.2,54.6,30.14,NE,47,0.0,0.0,98,0.00,,,0.00,Wunderground v.1.15,2013-07-02 11:28:00,
2013-07-02 06:33:00,55.4,54.8,30.15,NE,47,0.0,0.0,98,0.00,,,0.00,Wunderground v.1.15,2013-07-02 11:33:00,
2013-07-02 06:38:00,55.5,54.9,30.15,NE,47,0.0,1.0,98,0.00,,,0.00,Wunderground v.1.15,2013-07-02 11:38:00,
2013-07-02 06:43:00,55.8,55.2,30.15,NE,47,0.0,0.0,98,0.00,,,0.00,Wunderground v.1.15,2013-07-02 11:43:00,
2013-07-02 06:48:00,56.0,55.4,30.15,NE,47,0.0,0.0,98,0.00,,,0.00,Wunderground v.1.15,2013-07-02 11:48:00,
2013-07-02 06:53:00,56.3,55.7,30.15,NE,47,0.0,0.0,98,0.00,,,0.00,Wunderground v.1.15,2013-07-02 11:53:00,
2013-07-02 06:58:00,56.5,55.9,30.15,NE,47,0.0,0.0,98,0.00,,,0.00,Wunderground v.1.15,2013-07-02 11:58:00,
2013-07-02 07:03:00,56.7,56.1,30.15,NE,47,0.0,3.0,98,0.00,,,0.00,Wunderground v.1.15,2013-07-02 12:03:00,
2013-07-02 07:08:00,56.9,56.1,30.15,NNE,29,2.0,3.0,97,0.00,,,0.00,Wunderground v.1.15,2013-07-02 12:08:00,
2013-07-02 07:13:00,57.3,56.5,30.15,NNE,28,0.0,0.0,97,0.00,,,0.00,Wunderground v.1.15,2013-07-02 12:13:00,
2013-07-02 07:18:00,57.8,56.4,30.15,NNE,28,0.0,2.0,95,0.00,,,0.00,Wunderground v.1.15,2013-07-02 12:18:00,
2013-07-02 07:24:00,58.8,56.8,30.15,NNE,28,3.0,3.0,93,0.00,,,0.00,Wunderground v.1.15,2013-07-02 12:24:00,
2013-07-02 07:29:00,60.0,57.1,30.15,North,5,1.0,5.0,90,0.00,,,0.00,Wunderground v.1.15,2013-07-02 12:29:00,
2013-07-02 07:34:00,61.0,57.1,30.15,NNE,15,2.0,3.0,87,0.00,,,0.00,Wunderground v.1.15,2013-07-02 12:34:00,
2013-07-02 07:39:00,62.0,57.8,30.15,NNE,15,2.0,3.0,86,0.00,,,0.00,Wunderground v.1.15,2013-07-02 12:39:00,
2013-07-02 07:45:00,62.7,57.5,30.15,NNE,15,2.0,2.0,83,0.00,,,0.00,Wunderground v.1.15,2013-07-02 12:45:00,
2013-07-02 07:50:00,63.4,58.5,30.15,NNE,15,0.0,2.0,84,0.00,,,0.00,Wunderground v.1.15,2013-07-02 12:50:00,
2013-07-02 07:55:00,64.1,58.5,30.15,NNE,13,3.0,3.0,82,0.00,,,0.00,Wunderground v.1.15,2013-07-02 12:55:00,
2013-07-02 08:00:00,64.5,57.8,30.15,NNE,13,0.0,3.0,79,0.00,,,0.00,Wunderground v.1.15,2013-07-02 13:00:00,
2013-07-02 08:05:00,65.0,58.0,30.14,NNE,13,0.0,1.0,78,0.00,,,0.00,Wunderground v.1.15,2013-07-02 13:05:00,
2013-07-02 08:11:00,65.8,59.5,30.15,NNE,13,0.0,1.0,80,0.00,,,0.00,Wunderground v.1.15,2013-07-02 13:11:00,
2013-07-02 08:16:00,66.6,59.2,30.15,NNE,13,0.0,0.0,77,0.00,,,0.00,Wunderground v.1.15,2013-07-02 13:16:00,
2013-07-02 08:21:00,67.1,59.6,30.14,NNE,13,0.0,0.0,77,0.00,,,0.00,Wunderground v.1.15,2013-07-02 13:21:00,
2013-07-02 08:26:00,67.6,58.6,30.14,NNE,13,0.0,0.0,73,0.00,,,0.00,Wunderground v.1.15,2013-07-02 13:26:00,
2013-07-02 08:31:00,67.5,58.9,30.15,NNE,13,0.0,0.0,74,0.00,,,0.00,Wunderground v.1.15,2013-07-02 13:31:00,
2013-07-02 08:36:00,67.8,59.2,30.14,NNE,13,0.0,2.0,74,0.00,,,0.00,Wunderground v.1.15,2013-07-02 13:36:00,
2013-07-02 08:41:00,68.7,59.3,30.14,NNE,13,1.0,3.0,72,0.00,,,0.00,Wunderground v.1.15,2013-07-02 13:41:00,
2013-07-02 08:46:00,69.4,59.2,30.14,NNE,13,0.0,1.0,70,0.00,,,0.00,Wunderground v.1.15,2013-07-02 13:46:00,
2013-07-02 08:51:00,69.8,60.4,30.14,NNE,13,0.0,1.0,72,0.00,,,0.00,Wunderground v.1.15,2013-07-02 13:51:00,
2013-07-02 08:56:00,70.1,60.3,30.14,NNE,13,0.0,2.0,71,0.00,,,0.00,Wunderground v.1.15,2013-07-02 13:56:00,
2013-07-02 09:01:00,70.7,60.0,30.14,ENE,72,0.0,4.0,69,0.00,,,0.00,Wunderground v.1.15,2013-07-02 14:01:00,
2013-07-02 09:07:00,71.0,59.1,30.14,ENE,72,1.0,3.0,66,0.00,,,0.00,Wunderground v.1.15,2013-07-02 14:07:00,
2013-07-02 09:12:00,71.0,61.1,30.14,ENE,72,3.0,3.0,71,0.00,,,0.00,Wunderground v.1.15,2013-07-02 14:12:00,
2013-07-02 09:17:00,71.4,59.9,30.14,ENE,72,0.0,3.0,67,0.00,,,0.00,Wunderground v.1.15,2013-07-02 14:17:00,
2013-07-02 09:22:00,72.1,59.7,30.14,ENE,62,2.0,3.0,65,0.00,,,0.00,Wunderground v.1.15,2013-07-02 14:22:00,
2013-07-02 09:27:00,72.7,59.4,30.14,ENE,62,0.0,3.0,63,0.00,,,0.00,Wunderground v.1.15,2013-07-02 14:27:00,
2013-07-02 09:32:00,73.3,61.3,30.13,North,11,0.0,1.0,66,0.00,,,0.00,Wunderground v.1.15,2013-07-02 14:32:00,
2013-07-02 09:37:00,73.6,60.2,30.13,NNE,24,0.0,3.0,63,0.00,,,0.00,Wunderground v.1.15,2013-07-02 14:37:00,
2013-07-02 09:42:00,74.1,60.7,30.13,NNE,25,2.0,2.0,63,0.00,,,0.00,Wunderground v.1.15,2013-07-02 14:42:00,
2013-07-02 09:48:00,74.2,58.0,30.13,NNE,25,0.0,2.0,57,0.00,,,0.00,Wunderground v.1.15,2013-07-02 14:48:00,
2013-07-02 09:53:00,74.7,58.5,30.13,NNE,24,0.0,0.0,57,0.00,,,0.00,Wunderground v.1.15,2013-07-02 14:53:00,
2013-07-02 09:58:00,75.3,58.5,30.14,NNE,24,0.0,2.0,56,0.00,,,0.00,Wunderground v.1.15,2013-07-02 14:58:00,
2013-07-02 10:03:00,75.8,56.9,30.13,NNE,24,0.0,0.0,52,0.00,,,0.00,Wunderground v.1.15,2013-07-02 15:03:00,
2013-07-02 10:08:00,76.3,56.3,30.13,NNE,24,0.0,3.0,50,0.00,,,0.00,Wunderground v.1.15,2013-07-02 15:08:00,
2013-07-02 10:14:00,76.3,57.4,30.13,NNE,26,3.0,3.0,52,0.00,,,0.00,Wunderground v.1.15,2013-07-02 15:14:00,
2013-07-02 10:19:00,76.6,53.7,30.13,NE,52,1.0,3.0,45,0.00,,,0.00,Wunderground v.1.15,2013-07-02 15:19:00,
2013-07-02 10:24:00,76.9,55.7,30.13,NE,53,1.0,1.0,48,0.00,,,0.00,Wunderground v.1.15,2013-07-02 15:24:00,
2013-07-02 10:29:00,77.5,55.1,30.13,NE,52,1.0,2.0,46,0.00,,,0.00,Wunderground v.1.15,2013-07-02 15:29:00,
2013-07-02 10:34:00,77.9,55.5,30.13,NNW,340,3.0,5.0,46,0.00,,,0.00,Wunderground v.1.15,2013-07-02 15:34:00,
2013-07-02 10:39:00,78.3,54.0,30.13,North,355,0.0,5.0,43,0.00,,,0.00,Wunderground v.1.15,2013-07-02 15:39:00,
2013-07-02 10:44:00,78.7,55.0,30.13,North,355,1.0,3.0,44,0.00,,,0.00,Wunderground v.1.15,2013-07-02 15:44:00,
2013-07-02 10:49:00,78.7,54.3,30.13,North,355,0.0,3.0,43,0.00,,,0.00,Wunderground v.1.15,2013-07-02 15:49:00,
2013-07-02 10:54:00,78.9,54.5,30.13,North,355,3.0,3.0,43,0.00,,,0.00,Wunderground v.1.15,2013-07-02 15:54:00,
2013-07-02 10:59:00,79.4,55.6,30.13,North,355,3.0,4.0,44,0.00,,,0.00,Wunderground v.1.15,2013-07-02 15:59:00,
2013-07-02 11:05:00,79.7,53.2,30.12,North,360,0.0,2.0,40,0.00,,,0.00,Wunderground v.1.15,2013-07-02 16:05:00,
2013-07-02 11:10:00,80.0,53.5,30.12,NE,52,0.0,5.0,40,0.00,,,0.00,Wunderground v.1.15,2013-07-02 16:10:00,
2013-07-02 11:15:00,80.2,53.0,30.12,NNE,17,3.0,4.0,39,0.00,,,0.00,Wunderground v.1.15,2013-07-02 16:15:00,
2013-07-02 11:20:00,80.4,54.5,30.13,NNW,341,5.0,5.0,41,0.00,,,0.00,Wunderground v.1.15,2013-07-02 16:20:00,
2013-07-02 11:25:00,81.0,52.3,30.12,NNE,26,4.0,4.0,37,0.00,,,0.00,Wunderground v.1.15,2013-07-02 16:25:00,
2013-07-02 11:30:00,81.3,53.3,30.12,NNE,29,0.0,4.0,38,0.00,,,0.00,Wunderground v.1.15,2013-07-02 16:30:00,
2013-07-02 11:35:00,81.2,53.2,30.12,East,98,0.0,5.0,38,0.00,,,0.00,Wunderground v.1.15,2013-07-02 16:35:00,
2013-07-02 11:41:00,81.3,54.0,30.12,East,98,0.0,5.0,39,0.00,,,0.00,Wunderground v.1.15,2013-07-02 16:41:00,
2013-07-02 11:46:00,81.7,57.0,30.12,NNE,15,1.0,5.0,43,0.00,,,0.00,Wunderground v.1.15,2013-07-02 16:46:00,
2013-07-02 11:51:00,82.1,55.4,30.12,ENE,58,3.0,5.0,40,0.00,,,0.00,Wunderground v.1.15,2013-07-02 16:51:00,
2013-07-02 11:55:00,82.1,54.7,30.12,ENE,59,0.0,2.0,39,0.00,,,0.00,Wunderground v.1.15,2013-07-02 16:55:00,
2013-07-02 12:01:00,82.2,54.1,30.12,ENE,59,1.0,3.0,38,0.00,,,0.00,Wunderground v.1.15,2013-07-02 17:01:00,
2013-07-02 12:06:00,82.5,55.7,30.12,East,90,2.0,4.0,40,0.00,,,0.00,Wunderground v.1.15,2013-07-02 17:06:00,
2013-07-02 12:11:00,82.7,57.3,30.12,East,93,4.0,9.0,42,0.00,,,0.00,Wunderground v.1.15,2013-07-02 17:11:00,
2013-07-02 12:16:00,83.7,56.8,30.12,ENE,57,3.0,4.0,40,0.00,,,0.00,Wunderground v.1.15,2013-07-02 17:16:00,
2013-07-02 12:21:00,83.9,56.3,30.12,East,90,0.0,5.0,39,0.00,,,0.00,Wunderground v.1.15,2013-07-02 17:21:00,
2013-07-02 12:26:00,84.1,57.2,30.12,East,90,1.0,2.0,40,0.00,,,0.00,Wunderground v.1.15,2013-07-02 17:26:00,
2013-07-02 12:31:00,83.9,56.3,30.12,East,94,2.0,5.0,39,0.00,,,0.00,Wunderground v.1.15,2013-07-02 17:31:00,
2013-07-02 12:37:00,83.8,56.2,30.12,ENE,57,2.0,7.0,39,0.00,,,0.00,Wunderground v.1.15,2013-07-02 17:37:00,
2013-07-02 12:42:00,84.1,56.5,30.11,ESE,105,7.0,7.0,39,0.00,,,0.00,Wunderground v.1.15,2013-07-02 17:42:00,
2013-07-02 12:47:00,84.0,58.4,30.11,NNE,24,0.0,7.0,42,0.00,,,0.00,Wunderground v.1.15,2013-07-02 17:47:00,
2013-07-02 12:52:00,83.6,58.7,30.11,SW,230,1.0,2.0,43,0.00,,,0.00,Wunderground v.1.15,2013-07-02 17:52:00,
2013-07-02 12:57:00,84.0,57.1,30.11,ENE,60,2.0,4.0,40,0.00,,,0.00,Wunderground v.1.15,2013-07-02 17:57:00,
2013-07-02 13:02:00,84.6,60.3,30.11,NE,42,0.0,1.0,44,0.00,,,0.00,Wunderground v.1.15,2013-07-02 18:02:00,
2013-07-02 13:07:00,84.0,58.4,30.11,SE,136,1.0,5.0,42,0.00,,,0.00,Wunderground v.1.15,2013-07-02 18:07:00,
2013-07-02 13:12:00,83.5,56.6,30.11,SE,132,6.0,6.0,40,0.00,,,0.00,Wunderground v.1.15,2013-07-02 18:12:00,
2013-07-02 13:18:00,83.6,60.0,30.10,NNE,16,3.0,6.0,45,0.00,,,0.00,Wunderground v.1.15,2013-07-02 18:18:00,
2013-07-02 13:23:00,84.1,59.2,30.10,SE,134,0.0,1.0,43,0.00,,,0.00,Wunderground v.1.15,2013-07-02 18:23:00,
2013-07-02 13:28:00,84.7,57.7,30.10,NE,51,2.0,7.0,40,0.00,,,0.00,Wunderground v.1.15,2013-07-02 18:28:00,
2013-07-02 13:33:00,84.9,57.2,30.10,NE,41,1.0,1.0,39,0.00,,,0.00,Wunderground v.1.15,2013-07-02 18:33:00,
2013-07-02 13:38:00,84.6,60.9,30.10,North,360,0.0,5.0,45,0.00,,,0.00,Wunderground v.1.15,2013-07-02 18:38:00,
2013-07-02 13:43:00,84.5,57.5,30.10,ENE,78,0.0,2.0,40,0.00,,,0.00,Wunderground v.1.15,2013-07-02 18:43:00,
2013-07-02 13:48:00,83.9,57.0,30.10,ESE,107,0.0,2.0,40,0.00,,,0.00,Wunderground v.1.15,2013-07-02 18:48:00,
2013-07-02 13:54:00,83.9,56.3,30.10,ENE,59,0.0,1.0,39,0.00,,,0.00,Wunderground v.1.15,2013-07-02 18:54:00,
2013-07-02 13:59:00,83.8,60.8,30.10,SE,134,0.0,6.0,46,0.00,,,0.00,Wunderground v.1.15,2013-07-02 18:59:00,
2013-07-02 14:04:00,83.9,57.7,30.09,ENE,78,0.0,3.0,41,0.00,,,0.00,Wunderground v.1.15,2013-07-02 19:04:00,
2013-07-02 14:09:00,84.5,60.2,30.09,East,79,0.0,7.0,44,0.00,,,0.00,Wunderground v.1.15,2013-07-02 19:09:00,
2013-07-02 14:14:00,85.1,58.8,30.09,SE,136,0.0,5.0,41,0.00,,,0.00,Wunderground v.1.15,2013-07-02 19:14:00,
2013-07-02 14:19:00,85.2,58.8,30.09,SE,136,0.0,5.0,41,0.00,,,0.00,Wunderground v.1.15,2013-07-02 19:19:00,
2013-07-02 14:24:00,85.4,61.0,30.09,East,85,6.0,6.0,44,0.00,,,0.00,Wunderground v.1.15,2013-07-02 19:24:00,
2013-07-02 14:30:00,85.1,58.8,30.09,SE,138,0.0,6.0,41,0.00,,,0.00,Wunderground v.1.15,2013-07-02 19:30:00,
2013-07-02 14:35:00,85.5,59.8,30.08,ENE,61,3.0,3.0,42,0.00,,,0.00,Wunderground v.1.15,2013-07-02 19:35:00,
2013-07-02 14:40:00,85.8,62.0,30.08,ESE,109,6.0,8.0,45,0.00,,,0.00,Wunderground v.1.15,2013-07-02 19:40:00,
2013-07-02 14:45:00,85.7,59.3,30.08,ENE,73,0.0,4.0,41,0.00,,,0.00,Wunderground v.1.15,2013-07-02 19:45:00,
2013-07-02 14:50:00,85.8,59.4,30.08,ENE,57,0.0,4.0,41,0.00,,,0.00,Wunderground v.1.15,2013-07-02 19:50:00,
2013-07-02 14:55:00,86.0,60.9,30.08,ENE,71,0.0,7.0,43,0.00,,,0.00,Wunderground v.1.15,2013-07-02 19:55:00,
2013-07-02 15:00:00,86.0,59.6,30.08,NNW,340,0.0,7.0,41,0.00,,,0.00,Wunderground v.1.15,2013-07-02 20:00:00,
2013-07-02 15:05:00,86.1,57.5,30.08,NE,54,0.0,5.0,38,0.00,,,0.00,Wunderground v.1.15,2013-07-02 20:05:00,
2013-07-02 15:10:00,85.4,57.6,30.08,SSW,192,2.0,5.0,39,0.00,,,0.00,Wunderground v.1.15,2013-07-02 20:10:00,
2013-07-02 15:16:00,85.3,60.9,30.08,South,182,0.0,2.0,44,0.00,,,0.00,Wunderground v.1.15,2013-07-02 20:16:00,
2013-07-02 15:21:00,85.3,60.3,30.08,NNE,26,1.0,4.0,43,0.00,,,0.00,Wunderground v.1.15,2013-07-02 20:21:00,
2013-07-02 15:26:00,85.5,59.1,30.08,NE,41,0.0,4.0,41,0.00,,,0.00,Wunderground v.1.15,2013-07-02 20:26:00,
2013-07-02 15:31:00,85.9,60.1,30.08,NNW,329,2.0,7.0,42,0.00,,,0.00,Wunderground v.1.15,2013-07-02 20:31:00,
2013-07-02 15:36:00,86.3,60.5,30.07,NE,53,0.0,2.0,42,0.00,,,0.00,Wunderground v.1.15,2013-07-02 20:36:00,
2013-07-02 15:41:00,86.2,59.7,30.07,East,91,0.0,7.0,41,0.00,,,0.00,Wunderground v.1.15,2013-07-02 20:41:00,
2013-07-02 15:46:00,85.8,59.4,30.07,East,87,3.0,6.0,41,0.00,,,0.00,Wunderground v.1.15,2013-07-02 20:46:00,
2013-07-02 15:51:00,85.5,57.7,30.07,East,96,5.0,11.0,39,0.00,,,0.00,Wunderground v.1.15,2013-07-02 20:51:00,
2013-07-02 15:56:00,85.1,56.6,30.07,ENE,76,0.0,3.0,38,0.00,,,0.00,Wunderground v.1.15,2013-07-02 20:56:00,
2013-07-02 16:02:00,84.5,56.8,30.07,ENE,76,1.0,1.0,39,0.00,,,0.00,Wunderground v.1.15,2013-07-02 21:02:00,
2013-07-02 16:07:00,84.2,59.9,30.07,NNW,342,4.0,8.0,44,0.00,,,0.00,Wunderground v.1.15,2013-07-02 21:07:00,
2013-07-02 16:12:00,84.8,59.2,30.06,NNW,348,0.0,1.0,42,0.00,,,0.00,Wunderground v.1.15,2013-07-02 21:12:00,
2013-07-02 16:17:00,85.5,58.4,30.06,NNW,348,0.0,2.0,40,0.00,,,0.00,Wunderground v.1.15,2013-07-02 21:17:00,
2013-07-02 16:22:00,85.8,62.0,30.06,NNW,348,0.0,0.0,45,0.00,,,0.00,Wunderground v.1.15,2013-07-02 21:22:00,
2013-07-02 16:27:00,85.8,58.0,30.06,North,355,0.0,3.0,39,0.00,,,0.00,Wunderground v.1.15,2013-07-02 21:27:00,
2013-07-02 16:32:00,85.8,59.4,30.06,North,355,0.0,1.0,41,0.00,,,0.00,Wunderground v.1.15,2013-07-02 21:32:00,
2013-07-02 16:36:00,85.9,59.5,30.06,NE,46,0.0,2.0,41,0.00,,,0.00,Wunderground v.1.15,2013-07-02 21:36:00,
2013-07-02 16:41:00,86.3,59.1,30.06,East,87,1.0,5.0,40,0.00,,,0.00,Wunderground v.1.15,2013-07-02 21:41:00,
2013-07-02 16:46:00,85.8,58.7,30.06,ESE,113,0.0,3.0,40,0.00,,,0.00,Wunderground v.1.15,2013-07-02 21:46:00,
2013-07-02 16:51:00,86.0,60.2,30.06,NE,40,2.0,4.0,42,0.00,,,0.00,Wunderground v.1.15,2013-07-02 21:51:00,
2013-07-02 16:56:00,86.3,62.5,30.06,NE,40,0.0,2.0,45,0.00,,,0.00,Wunderground v.1.15,2013-07-02 21:56:00,
2013-07-02 17:01:00,86.6,61.4,30.06,NNE,22,0.0,6.0,43,0.00,,,0.00,Wunderground v.1.15,2013-07-02 22:01:00,
2013-07-02 17:06:00,86.3,58.4,30.05,North,355,0.0,4.0,39,0.00,,,0.00,Wunderground v.1.15,2013-07-02 22:06:00,
2013-07-02 17:12:00,86.3,60.5,30.05,NE,49,1.0,1.0,42,0.00,,,0.00,Wunderground v.1.15,2013-07-02 22:12:00,
2013-07-02 17:17:00,86.4,62.5,30.05,ENE,63,0.0,4.0,45,0.00,,,0.00,Wunderground v.1.15,2013-07-02 22:17:00,
2013-07-02 17:22:00,86.3,58.4,30.05,ENE,63,0.0,1.0,39,0.00,,,0.00,Wunderground v.1.15,2013-07-02 22:22:00,
2013-07-02 17:27:00,86.0,61.5,30.05,ENE,57,0.0,1.0,44,0.00,,,0.00,Wunderground v.1.15,2013-07-02 22:27:00,
2013-07-02 17:32:00,85.9,62.7,30.05,ENE,57,0.0,0.0,46,0.00,,,0.00,Wunderground v.1.15,2013-07-02 22:32:00,
2013-07-02 17:37:00,85.5,60.4,30.05,ENE,72,2.0,3.0,43,0.00,,,0.00,Wunderground v.1.15,2013-07-02 22:37:00,
2013-07-02 17:42:00,85.0,60.6,30.05,ENE,57,0.0,3.0,44,0.00,,,0.00,Wunderground v.1.15,2013-07-02 22:42:00,
2013-07-02 17:48:00,84.7,60.4,30.05,ENE,71,0.0,4.0,44,0.00,,,0.00,Wunderground v.1.15,2013-07-02 22:48:00,
2013-07-02 17:53:00,84.6,60.3,30.04,ENE,78,0.0,1.0,44,0.00,,,0.00,Wunderground v.1.15,2013-07-02 22:53:00,
2013-07-02 17:58:00,84.3,60.0,30.04,ESE,108,2.0,6.0,44,0.00,,,0.00,Wunderground v.1.15,2013-07-02 22:58:00,
2013-07-02 18:03:00,83.9,59.7,30.04,ESE,107,0.0,5.0,44,0.00,,,0.00,Wunderground v.1.15,2013-07-02 23:03:00,
2013-07-02 18:08:00,83.6,60.6,30.04,East,99,0.0,6.0,46,0.00,,,0.00,Wunderground v.1.15,2013-07-02 23:08:00,
2013-07-02 18:13:00,83.4,59.8,30.04,ENE,65,1.0,3.0,45,0.00,,,0.00,Wunderground v.1.15,2013-07-02 23:13:00,
2013-07-02 18:18:00,83.0,58.8,30.04,ENE,61,4.0,4.0,44,0.00,,,0.00,Wunderground v.1.15,2013-07-02 23:18:00,
2013-07-02 18:24:00,82.6,60.9,30.04,ESE,112,0.0,4.0,48,0.00,,,0.00,Wunderground v.1.15,2013-07-02 23:24:00,
2013-07-02 18:29:00,82.3,60.1,30.04,ESE,113,0.0,4.0,47,0.00,,,0.00,Wunderground v.1.15,2013-07-02 23:29:00,
2013-07-02 18:34:00,82.0,59.8,30.04,ENE,71,0.0,3.0,47,0.00,,,0.00,Wunderground v.1.15,2013-07-02 23:34:00,
2013-07-02 18:39:00,81.7,60.1,30.05,East,79,0.0,5.0,48,0.00,,,0.00,Wunderground v.1.15,2013-07-02 23:39:00,
2013-07-02 18:44:00,81.4,58.0,30.04,East,89,3.0,4.0,45,0.00,,,0.00,Wunderground v.1.15,2013-07-02 23:44:00,
2013-07-02 18:49:00,81.1,59.6,30.04,ENE,61,0.0,5.0,48,0.00,,,0.00,Wunderground v.1.15,2013-07-02 23:49:00,
2013-07-02 18:55:00,80.8,58.7,30.04,ENE,72,0.0,6.0,47,0.00,,,0.00,Wunderground v.1.15,2013-07-02 23:55:00,
2013-07-02 19:00:00,80.6,59.7,30.04,East,86,1.0,6.0,49,0.00,,,0.00,Wunderground v.1.15,2013-07-03 00:00:00,
2013-07-02 19:01:00,80.6,59.7,30.04,East,86,0.0,6.0,49,0.00,,,0.00,Wunderground v.1.15,2013-07-03 00:01:00,
2013-07-02 19:06:00,80.4,58.9,30.04,ENE,76,3.0,6.0,48,0.00,,,0.00,Wunderground v.1.15,2013-07-03 00:06:00,
2013-07-02 19:11:00,80.1,58.6,30.04,East,82,0.0,6.0,48,0.00,,,0.00,Wunderground v.1.15,2013-07-03 00:11:00,
2013-07-02 19:16:00,79.9,58.5,30.04,North,11,0.0,2.0,48,0.00,,,0.00,Wunderground v.1.15,2013-07-03 00:16:00,
2013-07-02 19:21:00,79.7,58.8,30.04,ENE,60,0.0,6.0,49,0.00,,,0.00,Wunderground v.1.15,2013-07-03 00:21:00,
2013-07-02 19:23:00,79.6,59.9,30.04,ENE,60,0.0,1.0,51,0.00,,,0.00,Wunderground v.1.15,2013-07-03 00:23:00,
2013-07-02 19:24:00,79.6,59.3,30.04,ENE,63,0.0,1.0,50,0.00,,,0.00,Wunderground v.1.15,2013-07-03 00:24:00,
2013-07-02 19:29:00,79.3,59.6,30.04,ENE,63,0.0,1.0,51,0.00,,,0.00,Wunderground v.1.15,2013-07-03 00:29:00,
2013-07-02 19:30:00,79.3,60.1,30.04,ENE,63,0.0,1.0,52,0.00,,,0.00,Wunderground v.1.15,2013-07-03 00:30:00,
2013-07-02 19:33:00,79.2,59.5,30.04,ENE,63,0.0,0.0,51,0.00,,,0.00,Wunderground v.1.15,2013-07-03 00:33:00,
2013-07-02 19:38:00,79.0,60.4,30.04,ENE,63,0.0,0.0,53,0.00,,,0.00,Wunderground v.1.15,2013-07-03 00:38:00,
2013-07-02 19:43:00,78.7,60.1,30.04,ENE,63,0.0,0.0,53,0.00,,,0.00,Wunderground v.1.15,2013-07-03 00:43:00,
2013-07-02 19:49:00,78.4,60.4,30.04,ENE,63,0.0,0.0,54,0.00,,,0.00,Wunderground v.1.15,2013-07-03 00:49:00,
2013-07-02 19:54:00,78.2,61.2,30.04,ENE,63,0.0,0.0,56,0.00,,,0.00,Wunderground v.1.15,2013-07-03 00:54:00,
2013-07-02 19:59:00,77.8,61.3,30.04,ENE,63,0.0,0.0,57,0.00,,,0.00,Wunderground v.1.15,2013-07-03 00:59:00,
2013-07-02 20:01:00,77.8,61.3,30.04,ENE,63,0.0,0.0,57,0.00,,,0.00,Wunderground v.1.15,2013-07-03 01:01:00,
2013-07-02 20:03:00,77.6,61.7,30.04,ENE,63,0.0,0.0,58,0.00,,,0.00,Wunderground v.1.15,2013-07-03 01:03:00,
2013-07-02 20:08:00,77.3,60.9,30.04,ENE,63,0.0,0.0,57,0.00,,,0.00,Wunderground v.1.15,2013-07-03 01:08:00,
2013-07-02 20:10:00,77.2,61.3,30.04,ENE,63,0.0,0.0,58,0.00,,,0.00,Wunderground v.1.15,2013-07-03 01:10:00,
2013-07-02 20:15:00,76.9,62.0,30.04,ENE,63,0.0,0.0,60,0.00,,,0.00,Wunderground v.1.15,2013-07-03 01:15:00,
2013-07-02 20:20:00,76.6,62.6,30.03,ENE,63,0.0,0.0,62,0.00,,,0.00,Wunderground v.1.15,2013-07-03 01:20:00,
2013-07-02 20:26:00,76.2,62.7,30.03,ENE,63,0.0,0.0,63,0.00,,,0.00,Wunderground v.1.15,2013-07-03 01:26:00,
2013-07-02 20:27:00,76.1,62.6,30.04,ENE,63,0.0,0.0,63,0.00,,,0.00,Wunderground v.1.15,2013-07-03 01:27:00,
2013-07-02 20:32:00,75.5,62.5,30.03,ENE,63,0.0,0.0,64,0.00,,,0.00,Wunderground v.1.15,2013-07-03 01:32:00,
2013-07-02 20:38:00,75.1,63.0,30.03,ENE,63,0.0,0.0,66,0.00,,,0.00,Wunderground v.1.15,2013-07-03 01:38:00,
2013-07-02 20:43:00,74.6,62.9,30.04,ENE,63,0.0,0.0,67,0.00,,,0.00,Wunderground v.1.15,2013-07-03 01:43:00,
2013-07-02 20:48:00,74.0,62.8,30.03,ENE,63,0.0,0.0,68,0.00,,,0.00,Wunderground v.1.15,2013-07-03 01:48:00,
2013-07-02 20:50:00,73.8,62.2,30.03,ENE,63,0.0,0.0,67,0.00,,,0.00,Wunderground v.1.15,2013-07-03 01:50:00,
2013-07-02 20:55:00,73.2,62.4,30.03,ENE,63,0.0,0.0,69,0.00,,,0.00,Wunderground v.1.15,2013-07-03 01:55:00,
2013-07-02 21:01:00,72.6,62.3,30.04,ENE,63,0.0,0.0,70,0.00,,,0.00,Wunderground v.1.15,2013-07-03 02:01:00,
2013-07-02 21:06:00,72.0,62.1,30.04,ENE,63,0.0,0.0,71,0.00,,,0.00,Wunderground v.1.15,2013-07-03 02:06:00,
2013-07-02 21:12:00,71.3,61.8,30.04,ENE,63,0.0,0.0,72,0.00,,,0.00,Wunderground v.1.15,2013-07-03 02:12:00,
2013-07-02 21:17:00,70.7,62.0,30.04,ENE,63,0.0,0.0,74,0.00,,,0.00,Wunderground v.1.15,2013-07-03 02:17:00,
2013-07-02 21:22:00,70.2,61.9,30.04,ENE,63,0.0,0.0,75,0.00,,,0.00,Wunderground v.1.15,2013-07-03 02:22:00,
2013-07-02 21:28:00,69.6,61.7,30.04,ENE,63,0.0,0.0,76,0.00,,,0.00,Wunderground v.1.15,2013-07-03 02:28:00,
2013-07-02 21:32:00,69.1,61.6,30.04,ENE,63,0.0,0.0,77,0.00,,,0.00,Wunderground v.1.15,2013-07-03 02:32:00,
2013-07-02 21:37:00,68.6,61.5,30.04,ENE,63,0.0,0.0,78,0.00,,,0.00,Wunderground v.1.15,2013-07-03 02:37:00,
2013-07-02 21:42:00,68.2,61.4,30.04,ENE,63,0.0,0.0,79,0.00,,,0.00,Wunderground v.1.15,2013-07-03 02:42:00,
2013-07-02 21:48:00,67.8,61.4,30.05,ENE,63,0.0,0.0,80,0.00,,,0.00,Wunderground v.1.15,2013-07-03 02:48:00,
2013-07-02 21:49:00,67.7,61.3,30.05,ENE,63,0.0,0.0,80,0.00,,,0.00,Wunderground v.1.15,2013-07-03 02:49:00,
2013-07-02 21:54:00,67.3,61.3,30.05,ENE,63,0.0,0.0,81,0.00,,,0.00,Wunderground v.1.15,2013-07-03 02:54:00,
2013-07-02 21:59:00,66.9,61.2,30.05,ENE,63,0.0,0.0,82,0.00,,,0.00,Wunderground v.1.15,2013-07-03 02:59:00,
2013-07-02 22:03:00,66.6,61.3,30.05,ENE,63,0.0,0.0,83,0.00,,,0.00,Wunderground v.1.15,2013-07-03 03:03:00,
2013-07-02 22:09:00,66.2,61.2,30.05,ENE,63,0.0,0.0,84,0.00,,,0.00,Wunderground v.1.15,2013-07-03 03:09:00,
2013-07-02 22:14:00,65.8,61.2,30.05,ENE,63,0.0,0.0,85,0.00,,,0.00,Wunderground v.1.15,2013-07-03 03:14:00,
2013-07-02 22:19:00,65.5,60.9,30.05,ENE,63,0.0,0.0,85,0.00,,,0.00,Wunderground v.1.15,2013-07-03 03:19:00,
2013-07-02 22:24:00,65.2,60.9,30.05,ENE,63,0.0,0.0,86,0.00,,,0.00,Wunderground v.1.15,2013-07-03 03:24:00,
2013-07-02 22:29:00,64.8,60.5,30.05,ENE,63,0.0,0.0,86,0.00,,,0.00,Wunderground v.1.15,2013-07-03 03:29:00,
2013-07-02 22:35:00,64.5,60.5,30.05,ENE,63,0.0,0.0,87,0.00,,,0.00,Wunderground v.1.15,2013-07-03 03:35:00,
2013-07-02 22:39:00,64.2,60.2,30.05,ENE,63,0.0,0.0,87,0.00,,,0.00,Wunderground v.1.15,2013-07-03 03:39:00,
2013-07-02 22:44:00,64.0,60.1,30.05,ENE,63,0.0,0.0,87,0.00,,,0.00,Wunderground v.1.15,2013-07-03 03:44:00,
2013-07-02 22:49:00,63.7,60.1,30.05,ENE,63,0.0,0.0,88,0.00,,,0.00,Wunderground v.1.15,2013-07-03 03:49:00,
2013-07-02 22:54:00,63.4,59.8,30.05,ENE,63,0.0,0.0,88,0.00,,,0.00,Wunderground v.1.15,2013-07-03 03:54:00,
2013-07-02 22:59:00,63.1,59.5,30.05,ENE,63,0.0,0.0,88,0.00,,,0.00,Wunderground v.1.15,2013-07-03 03:59:00,
2013-07-02 23:00:00,63.1,59.5,30.05,ENE,63,0.0,0.0,88,0.00,,,0.00,Wunderground v.1.15,2013-07-03 04:00:00,
2013-07-02 23:01:00,63.1,59.5,30.05,ENE,63,0.0,0.0,88,0.00,,,0.00,Wunderground v.1.15,2013-07-03 04:01:00,
2013-07-02 23:02:00,63.0,59.4,30.05,ENE,63,0.0,0.0,88,0.00,,,0.00,Wunderground v.1.15,2013-07-03 04:02:00,
2013-07-02 23:04:00,62.9,59.3,30.05,ENE,63,0.0,0.0,88,0.00,,,0.00,Wunderground v.1.15,2013-07-03 04:04:00,
2013-07-02 23:05:00,62.8,59.2,30.05,ENE,63,0.0,0.0,88,0.00,,,0.00,Wunderground v.1.15,2013-07-03 04:05:00,
2013-07-02 23:09:00,62.6,59.0,30.05,ENE,63,0.0,0.0,88,0.00,,,0.00,Wunderground v.1.15,2013-07-03 04:09:00,
2013-07-02 23:14:00,62.3,58.7,30.05,ENE,63,0.0,0.0,88,0.00,,,0.00,Wunderground v.1.15,2013-07-03 04:14:00,
2013-07-02 23:19:00,62.0,58.7,30.05,ENE,63,0.0,0.0,89,0.00,,,0.00,Wunderground v.1.15,2013-07-03 04:19:00,
2013-07-02 23:24:00,61.7,58.4,30.05,ENE,63,0.0,0.0,89,0.00,,,0.00,Wunderground v.1.15,2013-07-03 04:24:00,
2013-07-02 23:29:00,61.4,58.1,30.05,ENE,63,0.0,0.0,89,0.00,,,0.00,Wunderground v.1.15,2013-07-03 04:29:00,
2013-07-02 23:31:00,61.3,58.0,30.05,ENE,63,0.0,0.0,89,0.00,,,0.00,Wunderground v.1.15,2013-07-03 04:31:00,
2013-07-02 23:33:00,61.3,58.3,30.05,ENE,63,0.0,0.0,90,0.00,,,0.00,Wunderground v.1.15,2013-07-03 04:33:00,
2013-07-02 23:38:00,61.0,58.0,30.05,ENE,63,0.0,0.0,90,0.00,,,0.00,Wunderground v.1.15,2013-07-03 04:38:00,
2013-07-02 23:43:00,60.8,58.2,30.05,ENE,63,0.0,0.0,91,0.00,,,0.00,Wunderground v.1.15,2013-07-03 04:43:00,
2013-07-02 23:45:00,60.7,58.1,30.05,ENE,63,0.0,0.0,91,0.00,,,0.00,Wunderground v.1.15,2013-07-03 04:45:00,
2013-07-02 23:48:00,60.5,57.9,30.05,ENE,63,0.0,0.0,91,0.00,,,0.00,Wunderground v.1.15,2013-07-03 04:48:00,
2013-07-02 23:53:00,60.3,57.7,30.05,ENE,63,0.0,0.0,91,0.00,,,0.00,Wunderground v.1.15,2013-07-03 04:53:00,
2013-07-02 23:58:00,60.1,57.5,30.05,ENE,63,0.0,0.0,91,0.00,,,0.00,Wunderground v.1.15,2013-07-03 04:58:00,